Highland Falls, New York
Current Conditions -  °F | °C
As of 7:45 PM on Tuesday 25 Nov 2014 (Local Time) from KSWF Reporting Station
Clear Clear  
Wind Chill: 37°   Ceiling: Unl
Heat Index: 43°   Visibility: 10mi
Dew Point: 30°   Wind: 9mph
Humidity: 61%   Direction: 270°W
Pressure: 30.08"   Gusts: NA
Location:  41.37°N, 73.97°W
Report Text: KSWF 260045Z 27008KT 10SM SKC 06/M01 A3008
Loading
Personal Weather Stations






























Interactive Weather Map New forecast layout! Learn more

10-Day Weather Forecast

Advertisements
Track Severe Weather on mobile